createdAt,value
2023-02-24T08:49:33.171Z,9.30
2023-02-24T08:52:02.275Z,9.00
2023-02-24T08:54:31.976Z,9.00
2023-02-24T08:57:08.145Z,9.10
2023-02-24T08:59:48.346Z,9.10
2023-02-24T09:02:27.130Z,9.10
2023-02-24T09:04:58.704Z,9.10
2023-02-24T09:07:29.396Z,9.20
2023-02-24T09:09:58.564Z,9.20
2023-02-24T09:12:29.079Z,9.30
2023-02-24T09:15:01.144Z,9.30
2023-02-24T09:17:50.939Z,9.30
2023-02-24T09:20:56.223Z,9.40
2023-02-24T09:23:29.867Z,9.50
2023-02-24T09:25:58.170Z,9.60
2023-02-24T09:28:32.685Z,9.50
2023-02-24T09:31:04.845Z,9.60
2023-02-24T09:33:38.975Z,9.60
2023-02-24T09:36:13.776Z,9.70
2023-02-24T09:39:10.612Z,9.70
2023-02-24T09:41:56.503Z,9.70
2023-02-24T09:44:33.284Z,9.80
2023-02-24T09:47:08.953Z,9.70
2023-02-24T09:49:47.728Z,10.20
2023-02-24T09:52:18.849Z,9.90
2023-02-24T09:55:12.363Z,10.00
2023-02-24T09:58:11.831Z,10.00
2023-02-24T10:00:44.893Z,10.10
2023-02-24T10:03:41.405Z,10.20
2023-02-24T10:06:20.519Z,10.30
2023-02-24T10:08:55.957Z,10.30
2023-02-24T10:11:33.737Z,10.60
2023-02-24T10:14:06.329Z,10.40
2023-02-24T10:16:42.469Z,10.40
2023-02-24T10:19:24.692Z,10.50
2023-02-24T10:22:02.950Z,10.50
2023-02-24T10:24:38.342Z,10.50
2023-02-24T10:27:16.778Z,10.50
2023-02-24T10:30:03.962Z,10.60
2023-02-24T10:32:37.311Z,10.50
2023-02-24T10:35:06.212Z,10.70
2023-02-24T10:37:34.220Z,10.80
2023-02-24T10:40:09.801Z,10.80
2023-02-24T10:42:45.702Z,10.90
2023-02-24T10:45:19.412Z,11.00
2023-02-24T10:47:56.557Z,11.00
2023-02-24T10:50:29.843Z,11.10
2023-02-24T10:53:34.286Z,11.10
2023-02-24T10:56:26.772Z,11.10
2023-02-24T10:59:20.711Z,11.00
2023-02-24T11:01:59.237Z,10.90
2023-02-24T11:04:54.229Z,11.00
2023-02-24T11:07:44.079Z,10.90
2023-02-24T11:10:25.828Z,10.80
2023-02-24T11:13:14.184Z,10.80
2023-02-24T11:16:03.555Z,10.80
2023-02-24T11:18:32.887Z,10.80
2023-02-24T11:21:03.016Z,10.80
2023-02-24T11:23:36.218Z,10.80
2023-02-24T11:26:10.239Z,10.80
2023-02-24T11:28:53.116Z,10.80
2023-02-24T11:31:36.839Z,10.80
2023-02-24T11:34:10.835Z,10.70
2023-02-24T11:36:47.551Z,10.80
2023-02-24T11:39:35.069Z,10.80
2023-02-24T11:42:10.026Z,10.90
2023-02-24T11:44:47.687Z,11.00
2023-02-24T11:47:20.314Z,11.10
2023-02-24T11:49:52.553Z,11.10
2023-02-24T11:52:21.345Z,11.10
2023-02-24T11:54:54.558Z,11.10
2023-02-24T11:57:30.312Z,11.10
2023-02-24T12:00:13.078Z,11.10
2023-02-24T12:02:47.979Z,11.10
2023-02-24T12:05:17.858Z,11.20
2023-02-24T12:07:50.293Z,11.20
2023-02-24T12:10:24.136Z,11.10
2023-02-24T12:13:03.963Z,11.10
2023-02-24T12:15:40.248Z,11.10
2023-02-24T12:18:17.709Z,11.10
2023-02-24T12:20:49.987Z,11.10
2023-02-24T12:23:19.278Z,10.90
2023-02-24T12:26:06.144Z,10.90
2023-02-24T12:28:49.773Z,10.90
2023-02-24T12:31:27.196Z,10.90
2023-02-24T12:34:08.553Z,11.00
2023-02-24T12:36:47.092Z,10.90
2023-02-24T12:39:18.167Z,10.90
2023-02-24T12:41:59.051Z,10.90
2023-02-24T12:44:36.645Z,10.90
2023-02-24T12:47:12.563Z,10.90
2023-02-24T12:50:09.829Z,10.90
2023-02-24T12:52:46.953Z,10.90
2023-02-24T12:55:21.607Z,10.90
2023-02-24T12:58:00.334Z,10.90
2023-02-24T13:00:38.361Z,10.90
2023-02-24T13:03:23.457Z,10.80
2023-02-24T13:05:56.586Z,10.80
2023-02-24T13:08:34.841Z,10.80
2023-02-24T13:11:09.875Z,10.80
2023-02-24T13:13:44.784Z,10.80
2023-02-24T13:16:13.376Z,10.80
2023-02-24T13:18:42.674Z,10.70
2023-02-24T13:21:22.643Z,10.80
2023-02-24T13:23:57.530Z,10.70
2023-02-24T13:26:26.851Z,10.70
2023-02-24T13:29:01.883Z,10.70
2023-02-24T13:31:42.766Z,10.70
2023-02-24T13:34:32.836Z,10.70
2023-02-24T13:37:01.052Z,10.70
2023-02-24T13:39:34.607Z,10.70
2023-02-24T13:42:05.200Z,10.90
2023-02-24T13:44:33.380Z,10.70
2023-02-24T13:47:34.240Z,10.70
2023-02-24T13:50:25.303Z,10.70
2023-02-24T13:53:08.619Z,10.70
2023-02-24T13:55:47.790Z,10.60
2023-02-24T13:58:41.681Z,10.70
2023-02-24T14:01:12.562Z,10.70
2023-02-24T14:03:44.472Z,10.70
2023-02-24T14:06:21.940Z,10.60
2023-02-24T14:08:54.153Z,10.70
2023-02-24T14:11:26.909Z,10.60
2023-02-24T14:13:56.708Z,10.60
2023-02-24T14:16:27.404Z,10.60
2023-02-24T14:18:57.059Z,10.60
2023-02-24T14:21:27.973Z,10.50
2023-02-24T14:24:00.507Z,10.50
2023-02-24T14:26:29.779Z,10.80
2023-02-24T14:29:01.427Z,10.90
2023-02-24T14:31:31.175Z,10.60
2023-02-24T14:34:02.258Z,10.60
2023-02-24T14:36:35.099Z,10.50
2023-02-24T14:39:09.855Z,10.50
2023-02-24T14:41:37.888Z,10.30
2023-02-24T14:44:22.340Z,10.50
2023-02-24T14:46:52.107Z,10.50
2023-02-24T14:49:23.667Z,10.60
2023-02-24T14:51:58.346Z,10.60
2023-02-24T14:54:46.492Z,10.60
2023-02-24T14:57:18.539Z,10.70
2023-02-24T14:59:49.568Z,10.80
2023-02-24T15:02:21.037Z,10.50
2023-02-24T15:04:49.629Z,10.50
2023-02-24T15:07:22.020Z,10.50
2023-02-24T15:09:51.603Z,10.50
2023-02-24T15:12:28.057Z,10.40
2023-02-24T15:15:00.113Z,10.40
